This is the latest recevied weather packets stored in our database for station/object DB0DUS-10. If no packets are shown the sender has not sent any weather packets the latest 1 day(s).
| Time | Temp. | Humidity | Pressure | Rain* | Wind** | Luminosity | Snow |
|---|---|---|---|---|---|---|---|
| 1836274552 | 19.44° C | 64% | 1016.3 hPa | 0 mm | 4.02 m/s, 115° | - | - |
| 1836274401 | 19.44° C | 63% | 1016.3 hPa | 0 mm | 4.02 m/s, 116° | - | - |
| 1778030633 | 10.56° C | 94% | 1006.6 hPa | 1.78 mm | 1.79 m/s, 307° | - | - |
| 1778030580 | 10.56° C | 94% | 1006.6 hPa | 1.78 mm | 1.79 m/s, 307° | - | - |
| 1778029680 | 10.56° C | 94% | 1006.6 hPa | 1.78 mm | 1.34 m/s, 315° | - | - |
| 1778029080 | 10.56° C | 94% | 1006.7 hPa | 1.78 mm | 3.58 m/s, 317° | - | - |
| 1778027880 | 11.11° C | 94% | 1006.9 hPa | 1.52 mm | 2.68 m/s, 338° | - | - |
| 1778027580 | 11.11° C | 94% | 1006.9 hPa | 1.78 mm | 2.68 m/s, 288° | - | - |
| 1778026080 | 11.11° C | 94% | 1007.1 hPa | 1.52 mm | 2.68 m/s, 317° | - | - |
| 1778024581 | 11.11° C | 93% | 1007.4 hPa | 2.29 mm | 1.79 m/s, 303° | - | - |
| 1778024280 | 11.11° C | 93% | 1007.4 hPa | 2.03 mm | 3.13 m/s, 312° | - | - |
| 1778023082 | 11.11° C | 93% | 1007.5 hPa | 2.29 mm | 3.13 m/s, 329° | - | - |
| 1778022480 | 11.11° C | 93% | 1007.5 hPa | 2.29 mm | 4.02 m/s, 324° | - | - |
| 1778021581 | 11.11° C | 93% | 1007.6 hPa | 1.78 mm | 0.45 m/s, 254° | - | - |
| 1778020680 | 11.11° C | 92% | 1007.7 hPa | 1.52 mm | 0.89 m/s, 326° | - | - |
| 1778020081 | 11.11° C | 92% | 1007.7 hPa | 1.02 mm | 2.68 m/s, 315° | - | - |
| 1778018880 | 11.11° C | 92% | 1007.8 hPa | 0.76 mm | 0.89 m/s, 347° | - | - |
| 1778018581 | 11.11° C | 91% | 1007.7 hPa | 0.76 mm | 2.68 m/s, 306° | - | - |
| 1778017080 | 11.67° C | 91% | 1008 hPa | 0.25 mm | 0.89 m/s, 272° | - | - |
| 1778015581 | 11.67° C | 91% | 1008.2 hPa | 0.25 mm | 2.24 m/s, 310° | - | - |
| 1778015280 | 11.67° C | 91% | 1008.2 hPa | 0 mm | 2.24 m/s, 310° | - | - |
| 1778014081 | 11.67° C | 90% | 1008.2 hPa | 0 mm | 2.24 m/s, 357° | - | - |
| 1778013480 | 11.67° C | 90% | 1008.3 hPa | 0 mm | 3.13 m/s, 317° | - | - |
| 1778012581 | 11.67° C | 89% | 1008.3 hPa | 0 mm | 1.34 m/s, 348° | - | - |
| 1778011680 | 11.67° C | 88% | 1008.2 hPa | 0 mm | 2.68 m/s, 327° | - | - |
* Rain latest hour (hover to see other rain measurements)
** Current wind speed in m/s (hover to see current wind gust speed)